sensor_id;sensor_type;location;lat;lon;timestamp;P1;durP1;ratioP1;P2;durP2;ratioP2
72949;SDS011;64868;45.710;9.590;2023-04-25T00:01:13;3.97;;;0.95;;
72949;SDS011;64868;45.710;9.590;2023-04-25T00:03:45;5.45;;;1.05;;
72949;SDS011;64868;45.710;9.590;2023-04-25T00:06:15;3.92;;;0.75;;
72949;SDS011;64868;45.710;9.590;2023-04-25T00:08:45;4.95;;;1.00;;
72949;SDS011;64868;45.710;9.590;2023-04-25T00:11:16;3.40;;;0.82;;
72949;SDS011;64868;45.710;9.590;2023-04-25T00:13:48;4.28;;;0.82;;
72949;SDS011;64868;45.710;9.590;2023-04-25T00:16:18;4.90;;;1.10;;
72949;SDS011;64868;45.710;9.590;2023-04-25T00:18:46;5.15;;;1.08;;
72949;SDS011;64868;45.710;9.590;2023-04-25T00:21:18;3.72;;;0.90;;
72949;SDS011;64868;45.710;9.590;2023-04-25T00:23:51;4.30;;;0.93;;
72949;SDS011;64868;45.710;9.590;2023-04-25T00:26:24;3.47;;;1.00;;
72949;SDS011;64868;45.710;9.590;2023-04-25T00:28:54;5.55;;;1.23;;
72949;SDS011;64868;45.710;9.590;2023-04-25T00:31:27;2.60;;;0.73;;
72949;SDS011;64868;45.710;9.590;2023-04-25T00:33:57;3.20;;;0.80;;
72949;SDS011;64868;45.710;9.590;2023-04-25T00:36:30;4.20;;;0.80;;
72949;SDS011;64868;45.710;9.590;2023-04-25T00:39:02;5.60;;;0.95;;
72949;SDS011;64868;45.710;9.590;2023-04-25T00:41:35;4.88;;;1.10;;
72949;SDS011;64868;45.710;9.590;2023-04-25T00:44:06;3.05;;;0.80;;
72949;SDS011;64868;45.710;9.590;2023-04-25T00:46:38;3.95;;;0.95;;
72949;SDS011;64868;45.710;9.590;2023-04-25T00:49:11;3.95;;;0.80;;
72949;SDS011;64868;45.710;9.590;2023-04-25T00:51:44;3.47;;;0.90;;
72949;SDS011;64868;45.710;9.590;2023-04-25T00:54:16;3.30;;;1.00;;
72949;SDS011;64868;45.710;9.590;2023-04-25T00:56:47;5.95;;;0.90;;
72949;SDS011;64868;45.710;9.590;2023-04-25T00:59:17;3.33;;;0.80;;
72949;SDS011;64868;45.710;9.590;2023-04-25T01:01:47;3.08;;;0.70;;
72949;SDS011;64868;45.710;9.590;2023-04-25T01:04:18;3.08;;;0.88;;
72949;SDS011;64868;45.710;9.590;2023-04-25T01:06:50;3.92;;;0.80;;
72949;SDS011;64868;45.710;9.590;2023-04-25T01:09:22;3.90;;;0.80;;
72949;SDS011;64868;45.710;9.590;2023-04-25T01:11:52;4.72;;;1.00;;
72949;SDS011;64868;45.710;9.590;2023-04-25T01:14:25;4.55;;;0.70;;
72949;SDS011;64868;45.710;9.590;2023-04-25T01:16:57;3.63;;;0.70;;
72949;SDS011;64868;45.710;9.590;2023-04-25T01:19:27;3.35;;;0.60;;
72949;SDS011;64868;45.710;9.590;2023-04-25T01:22:01;3.40;;;0.73;;
72949;SDS011;64868;45.710;9.590;2023-04-25T01:24:33;4.13;;;1.00;;
72949;SDS011;64868;45.710;9.590;2023-04-25T01:27:03;4.50;;;0.80;;
72949;SDS011;64868;45.710;9.590;2023-04-25T01:29:36;3.67;;;0.70;;
72949;SDS011;64868;45.710;9.590;2023-04-25T01:32:09;3.45;;;0.70;;
72949;SDS011;64868;45.710;9.590;2023-04-25T01:34:40;3.35;;;0.65;;
72949;SDS011;64868;45.710;9.590;2023-04-25T01:37:13;3.88;;;0.80;;
72949;SDS011;64868;45.710;9.590;2023-04-25T01:39:38;3.22;;;0.80;;
72949;SDS011;64868;45.710;9.590;2023-04-25T01:42:09;2.08;;;0.75;;
72949;SDS011;64868;45.710;9.590;2023-04-25T01:44:39;3.47;;;0.60;;
72949;SDS011;64868;45.710;9.590;2023-04-25T01:47:11;3.13;;;0.70;;
72949;SDS011;64868;45.710;9.590;2023-04-25T01:49:44;3.60;;;0.93;;
72949;SDS011;64868;45.710;9.590;2023-04-25T01:52:16;5.20;;;0.93;;
72949;SDS011;64868;45.710;9.590;2023-04-25T01:54:49;2.80;;;0.60;;
72949;SDS011;64868;45.710;9.590;2023-04-25T01:57:22;2.40;;;0.50;;
72949;SDS011;64868;45.710;9.590;2023-04-25T02:00:02;3.42;;;0.80;;
72949;SDS011;64868;45.710;9.590;2023-04-25T02:02:37;3.75;;;0.85;;
72949;SDS011;64868;45.710;9.590;2023-04-25T02:05:09;3.17;;;0.60;;
72949;SDS011;64868;45.710;9.590;2023-04-25T02:07:42;3.72;;;0.70;;
72949;SDS011;64868;45.710;9.590;2023-04-25T02:10:15;4.90;;;1.00;;
72949;SDS011;64868;45.710;9.590;2023-04-25T02:12:47;4.00;;;0.85;;
72949;SDS011;64868;45.710;9.590;2023-04-25T02:15:17;3.75;;;0.70;;
72949;SDS011;64868;45.710;9.590;2023-04-25T02:17:48;2.38;;;0.60;;
72949;SDS011;64868;45.710;9.590;2023-04-25T02:20:21;3.67;;;0.88;;
72949;SDS011;64868;45.710;9.590;2023-04-25T02:22:54;3.83;;;0.98;;
72949;SDS011;64868;45.710;9.590;2023-04-25T02:25:26;2.67;;;0.70;;
72949;SDS011;64868;45.710;9.590;2023-04-25T02:27:59;3.38;;;0.80;;
72949;SDS011;64868;45.710;9.590;2023-04-25T02:30:30;3.03;;;0.70;;
72949;SDS011;64868;45.710;9.590;2023-04-25T02:33:02;4.75;;;0.80;;
72949;SDS011;64868;45.710;9.590;2023-04-25T02:35:30;3.15;;;0.70;;
72949;SDS011;64868;45.710;9.590;2023-04-25T02:38:00;4.95;;;0.75;;
72949;SDS011;64868;45.710;9.590;2023-04-25T02:40:32;4.20;;;0.70;;
72949;SDS011;64868;45.710;9.590;2023-04-25T02:43:02;3.65;;;0.70;;
72949;SDS011;64868;45.710;9.590;2023-04-25T02:45:35;3.35;;;0.80;;
72949;SDS011;64868;45.710;9.590;2023-04-25T02:48:08;3.38;;;0.90;;
72949;SDS011;64868;45.710;9.590;2023-04-25T02:50:38;3.95;;;0.90;;
72949;SDS011;64868;45.710;9.590;2023-04-25T02:53:06;2.70;;;0.70;;
72949;SDS011;64868;45.710;9.590;2023-04-25T02:55:38;6.32;;;0.90;;
72949;SDS011;64868;45.710;9.590;2023-04-25T02:58:11;3.75;;;0.80;;
72949;SDS011;64868;45.710;9.590;2023-04-25T03:00:43;3.03;;;0.68;;
72949;SDS011;64868;45.710;9.590;2023-04-25T03:03:14;2.53;;;0.60;;
72949;SDS011;64868;45.710;9.590;2023-04-25T03:05:50;3.90;;;0.70;;
72949;SDS011;64868;45.710;9.590;2023-04-25T03:08:21;3.95;;;1.00;;
72949;SDS011;64868;45.710;9.590;2023-04-25T03:10:54;4.45;;;0.90;;
72949;SDS011;64868;45.710;9.590;2023-04-25T03:13:22;2.65;;;0.80;;
72949;SDS011;64868;45.710;9.590;2023-04-25T03:15:54;3.75;;;0.82;;
72949;SDS011;64868;45.710;9.590;2023-04-25T03:18:24;3.25;;;0.70;;
72949;SDS011;64868;45.710;9.590;2023-04-25T03:20:57;3.90;;;0.63;;
72949;SDS011;64868;45.710;9.590;2023-04-25T03:23:30;4.88;;;0.80;;
72949;SDS011;64868;45.710;9.590;2023-04-25T03:26:02;3.50;;;0.77;;
72949;SDS011;64868;45.710;9.590;2023-04-25T03:28:34;3.75;;;0.63;;
72949;SDS011;64868;45.710;9.590;2023-04-25T03:31:07;3.33;;;0.65;;
72949;SDS011;64868;45.710;9.590;2023-04-25T03:33:37;4.00;;;0.70;;
72949;SDS011;64868;45.710;9.590;2023-04-25T03:36:10;3.42;;;0.60;;
72949;SDS011;64868;45.710;9.590;2023-04-25T03:38:43;4.00;;;0.52;;
72949;SDS011;64868;45.710;9.590;2023-04-25T03:41:15;3.20;;;0.60;;
72949;SDS011;64868;45.710;9.590;2023-04-25T03:43:45;3.03;;;0.60;;
72949;SDS011;64868;45.710;9.590;2023-04-25T03:46:18;3.28;;;0.70;;
72949;SDS011;64868;45.710;9.590;2023-04-25T03:48:51;2.40;;;0.68;;
72949;SDS011;64868;45.710;9.590;2023-04-25T03:51:21;4.10;;;0.75;;
72949;SDS011;64868;45.710;9.590;2023-04-25T03:53:54;2.95;;;0.70;;
72949;SDS011;64868;45.710;9.590;2023-04-25T03:56:24;6.85;;;0.82;;
72949;SDS011;64868;45.710;9.590;2023-04-25T03:58:56;3.30;;;0.73;;
72949;SDS011;64868;45.710;9.590;2023-04-25T04:01:27;3.15;;;0.70;;
72949;SDS011;64868;45.710;9.590;2023-04-25T04:03:59;2.17;;;0.55;;
72949;SDS011;64868;45.710;9.590;2023-04-25T04:06:32;3.53;;;0.75;;
72949;SDS011;64868;45.710;9.590;2023-04-25T04:09:02;2.15;;;0.60;;
72949;SDS011;64868;45.710;9.590;2023-04-25T04:11:33;2.75;;;0.70;;
72949;SDS011;64868;45.710;9.590;2023-04-25T04:14:05;3.33;;;0.90;;
72949;SDS011;64868;45.710;9.590;2023-04-25T04:16:37;2.75;;;0.60;;
72949;SDS011;64868;45.710;9.590;2023-04-25T04:19:10;4.68;;;1.02;;
72949;SDS011;64868;45.710;9.590;2023-04-25T04:21:40;2.70;;;0.88;;
72949;SDS011;64868;45.710;9.590;2023-04-25T04:24:13;2.58;;;0.65;;
72949;SDS011;64868;45.710;9.590;2023-04-25T04:26:46;4.63;;;0.80;;
72949;SDS011;64868;45.710;9.590;2023-04-25T04:29:18;2.17;;;0.60;;
72949;SDS011;64868;45.710;9.590;2023-04-25T04:31:49;3.50;;;0.70;;
72949;SDS011;64868;45.710;9.590;2023-04-25T04:34:22;3.83;;;1.00;;
72949;SDS011;64868;45.710;9.590;2023-04-25T04:36:55;3.30;;;0.75;;
72949;SDS011;64868;45.710;9.590;2023-04-25T04:39:27;2.40;;;0.60;;
72949;SDS011;64868;45.710;9.590;2023-04-25T04:42:00;4.28;;;0.77;;
72949;SDS011;64868;45.710;9.590;2023-04-25T04:44:33;3.35;;;0.73;;
72949;SDS011;64868;45.710;9.590;2023-04-25T04:47:05;2.47;;;0.70;;
72949;SDS011;64868;45.710;9.590;2023-04-25T04:49:38;2.67;;;0.70;;
72949;SDS011;64868;45.710;9.590;2023-04-25T04:52:10;3.22;;;0.70;;
72949;SDS011;64868;45.710;9.590;2023-04-25T04:54:43;3.67;;;0.70;;
72949;SDS011;64868;45.710;9.590;2023-04-25T04:57:16;4.75;;;0.90;;
72949;SDS011;64868;45.710;9.590;2023-04-25T04:59:48;4.82;;;1.13;;
72949;SDS011;64868;45.710;9.590;2023-04-25T05:02:16;4.40;;;1.00;;
72949;SDS011;64868;45.710;9.590;2023-04-25T05:04:48;4.18;;;0.90;;
72949;SDS011;64868;45.710;9.590;2023-04-25T05:07:21;3.35;;;0.80;;
72949;SDS011;64868;45.710;9.590;2023-04-25T05:09:54;5.13;;;1.17;;
72949;SDS011;64868;45.710;9.590;2023-04-25T05:12:26;3.45;;;0.90;;
72949;SDS011;64868;45.710;9.590;2023-04-25T05:14:56;3.33;;;0.90;;
72949;SDS011;64868;45.710;9.590;2023-04-25T05:17:27;3.08;;;0.75;;
72949;SDS011;64868;45.710;9.590;2023-04-25T05:19:59;4.65;;;0.70;;
72949;SDS011;64868;45.710;9.590;2023-04-25T05:22:33;3.25;;;1.05;;
72949;SDS011;64868;45.710;9.590;2023-04-25T05:25:03;5.22;;;1.00;;
72949;SDS011;64868;45.710;9.590;2023-04-25T05:27:34;4.32;;;0.80;;
72949;SDS011;64868;45.710;9.590;2023-04-25T05:30:06;3.92;;;0.93;;
72949;SDS011;64868;45.710;9.590;2023-04-25T05:32:37;4.38;;;1.00;;
72949;SDS011;64868;45.710;9.590;2023-04-25T05:35:09;4.22;;;1.00;;
72949;SDS011;64868;45.710;9.590;2023-04-25T05:37:37;4.18;;;0.90;;
72949;SDS011;64868;45.710;9.590;2023-04-25T05:40:10;7.22;;;0.93;;
72949;SDS011;64868;45.710;9.590;2023-04-25T05:42:40;3.63;;;0.88;;
72949;SDS011;64868;45.710;9.590;2023-04-25T05:45:10;3.20;;;0.90;;
72949;SDS011;64868;45.710;9.590;2023-04-25T05:47:40;2.90;;;0.90;;
72949;SDS011;64868;45.710;9.590;2023-04-25T05:50:13;3.83;;;0.85;;
72949;SDS011;64868;45.710;9.590;2023-04-25T05:52:43;3.83;;;0.80;;
72949;SDS011;64868;45.710;9.590;2023-04-25T05:55:15;5.38;;;1.00;;
72949;SDS011;64868;45.710;9.590;2023-04-25T05:57:46;5.35;;;1.23;;
72949;SDS011;64868;45.710;9.590;2023-04-25T06:00:16;4.55;;;0.88;;
72949;SDS011;64868;45.710;9.590;2023-04-25T06:02:48;3.85;;;0.90;;
72949;SDS011;64868;45.710;9.590;2023-04-25T06:05:21;4.82;;;1.10;;
72949;SDS011;64868;45.710;9.590;2023-04-25T06:07:53;3.47;;;0.90;;
72949;SDS011;64868;45.710;9.590;2023-04-25T06:10:26;4.72;;;1.10;;
72949;SDS011;64868;45.710;9.590;2023-04-25T06:12:56;4.68;;;1.20;;
72949;SDS011;64868;45.710;9.590;2023-04-25T06:15:27;4.53;;;0.93;;
72949;SDS011;64868;45.710;9.590;2023-04-25T06:17:59;5.32;;;0.82;;
72949;SDS011;64868;45.710;9.590;2023-04-25T06:20:32;4.22;;;0.82;;
72949;SDS011;64868;45.710;9.590;2023-04-25T06:23:02;5.75;;;1.30;;
72949;SDS011;64868;45.710;9.590;2023-04-25T06:25:30;4.10;;;1.23;;
72949;SDS011;64868;45.710;9.590;2023-04-25T06:28:00;4.15;;;1.00;;
72949;SDS011;64868;45.710;9.590;2023-04-25T06:30:25;4.10;;;0.93;;
72949;SDS011;64868;45.710;9.590;2023-04-25T06:32:59;5.10;;;1.17;;
72949;SDS011;64868;45.710;9.590;2023-04-25T06:35:29;4.20;;;0.70;;
72949;SDS011;64868;45.710;9.590;2023-04-25T06:37:59;3.15;;;0.88;;
72949;SDS011;64868;45.710;9.590;2023-04-25T06:40:32;4.10;;;0.90;;
72949;SDS011;64868;45.710;9.590;2023-04-25T06:43:05;3.53;;;0.85;;
72949;SDS011;64868;45.710;9.590;2023-04-25T06:45:37;4.82;;;1.17;;
72949;SDS011;64868;45.710;9.590;2023-04-25T06:48:10;4.82;;;1.17;;
72949;SDS011;64868;45.710;9.590;2023-04-25T06:50:40;4.70;;;1.25;;
72949;SDS011;64868;45.710;9.590;2023-04-25T06:53:13;4.72;;;1.20;;
72949;SDS011;64868;45.710;9.590;2023-04-25T06:55:43;4.93;;;1.70;;
72949;SDS011;64868;45.710;9.590;2023-04-25T06:58:13;4.80;;;1.73;;
72949;SDS011;64868;45.710;9.590;2023-04-25T07:00:43;6.55;;;1.88;;
72949;SDS011;64868;45.710;9.590;2023-04-25T07:03:14;6.95;;;1.90;;
72949;SDS011;64868;45.710;9.590;2023-04-25T07:05:44;5.45;;;1.90;;
72949;SDS011;64868;45.710;9.590;2023-04-25T07:08:14;4.47;;;1.45;;
72949;SDS011;64868;45.710;9.590;2023-04-25T07:10:47;3.83;;;1.30;;
72949;SDS011;64868;45.710;9.590;2023-04-25T07:13:19;5.30;;;1.35;;
72949;SDS011;64868;45.710;9.590;2023-04-25T07:15:49;4.60;;;1.25;;
72949;SDS011;64868;45.710;9.590;2023-04-25T07:18:19;4.68;;;1.20;;
72949;SDS011;64868;45.710;9.590;2023-04-25T07:20:50;3.10;;;1.10;;
72949;SDS011;64868;45.710;9.590;2023-04-25T07:23:20;5.18;;;0.82;;
72949;SDS011;64868;45.710;9.590;2023-04-25T07:25:52;4.18;;;0.80;;
72949;SDS011;64868;45.710;9.590;2023-04-25T07:28:25;2.35;;;0.80;;
72949;SDS011;64868;45.710;9.590;2023-04-25T07:30:55;4.13;;;0.80;;
72949;SDS011;64868;45.710;9.590;2023-04-25T07:33:23;4.45;;;0.82;;
72949;SDS011;64868;45.710;9.590;2023-04-25T07:35:56;3.97;;;0.65;;
72949;SDS011;64868;45.710;9.590;2023-04-25T07:38:26;5.22;;;0.77;;
72949;SDS011;64868;45.710;9.590;2023-04-25T07:40:58;3.05;;;0.70;;
72949;SDS011;64868;45.710;9.590;2023-04-25T07:43:31;3.25;;;0.60;;
72949;SDS011;64868;45.710;9.590;2023-04-25T07:45:58;3.38;;;0.60;;
72949;SDS011;64868;45.710;9.590;2023-04-25T07:48:29;2.92;;;0.70;;
72949;SDS011;64868;45.710;9.590;2023-04-25T07:51:01;2.45;;;0.60;;
72949;SDS011;64868;45.710;9.590;2023-04-25T07:53:32;2.70;;;0.70;;
72949;SDS011;64868;45.710;9.590;2023-04-25T07:56:01;2.72;;;0.68;;
72949;SDS011;64868;45.710;9.590;2023-04-25T07:58:34;2.33;;;0.50;;
72949;SDS011;64868;45.710;9.590;2023-04-25T08:01:07;2.55;;;0.77;;
72949;SDS011;64868;45.710;9.590;2023-04-25T08:03:39;3.92;;;0.63;;
72949;SDS011;64868;45.710;9.590;2023-04-25T08:06:12;2.78;;;0.70;;
72949;SDS011;64868;45.710;9.590;2023-04-25T08:08:45;2.65;;;0.50;;
72949;SDS011;64868;45.710;9.590;2023-04-25T08:11:15;1.98;;;0.60;;
72949;SDS011;64868;45.710;9.590;2023-04-25T08:13:47;2.13;;;0.65;;
72949;SDS011;64868;45.710;9.590;2023-04-25T08:16:20;4.82;;;1.25;;
72949;SDS011;64868;45.710;9.590;2023-04-25T08:18:50;3.75;;;0.90;;
72949;SDS011;64868;45.710;9.590;2023-04-25T08:21:20;2.50;;;0.73;;
72949;SDS011;64868;45.710;9.590;2023-04-25T08:23:53;3.53;;;0.90;;
72949;SDS011;64868;45.710;9.590;2023-04-25T08:26:22;2.25;;;0.60;;
72949;SDS011;64868;45.710;9.590;2023-04-25T08:28:54;3.30;;;0.80;;
72949;SDS011;64868;45.710;9.590;2023-04-25T08:31:22;3.85;;;0.90;;
72949;SDS011;64868;45.710;9.590;2023-04-25T08:33:50;6.80;;;1.10;;
72949;SDS011;64868;45.710;9.590;2023-04-25T08:36:17;4.18;;;1.00;;
72949;SDS011;64868;45.710;9.590;2023-04-25T08:38:47;4.30;;;1.00;;
72949;SDS011;64868;45.710;9.590;2023-04-25T08:41:15;4.20;;;1.23;;
72949;SDS011;64868;45.710;9.590;2023-04-25T08:43:49;4.10;;;1.00;;
72949;SDS011;64868;45.710;9.590;2023-04-25T08:46:21;5.70;;;0.90;;
72949;SDS011;64868;45.710;9.590;2023-04-25T08:48:55;3.45;;;0.80;;
72949;SDS011;64868;45.710;9.590;2023-04-25T08:51:25;3.78;;;0.80;;
72949;SDS011;64868;45.710;9.590;2023-04-25T08:53:55;4.97;;;0.90;;
72949;SDS011;64868;45.710;9.590;2023-04-25T08:56:29;3.90;;;1.00;;
72949;SDS011;64868;45.710;9.590;2023-04-25T08:59:02;5.22;;;1.20;;
72949;SDS011;64868;45.710;9.590;2023-04-25T09:01:27;4.88;;;1.17;;
72949;SDS011;64868;45.710;9.590;2023-04-25T09:03:55;6.32;;;1.40;;
72949;SDS011;64868;45.710;9.590;2023-04-25T09:06:24;5.90;;;1.40;;
72949;SDS011;64868;45.710;9.590;2023-04-25T09:09:00;4.93;;;1.13;;
72949;SDS011;64868;45.710;9.590;2023-04-25T09:11:30;5.63;;;1.38;;
72949;SDS011;64868;45.710;9.590;2023-04-25T09:14:16;5.47;;;2.17;;
72949;SDS011;64868;45.710;9.590;2023-04-25T09:17:00;7.45;;;1.63;;
72949;SDS011;64868;45.710;9.590;2023-04-25T09:19:33;6.28;;;1.95;;
72949;SDS011;64868;45.710;9.590;2023-04-25T09:22:07;5.63;;;1.70;;
72949;SDS011;64868;45.710;9.590;2023-04-25T09:24:37;5.15;;;1.70;;
72949;SDS011;64868;45.710;9.590;2023-04-25T09:27:09;6.85;;;1.90;;
72949;SDS011;64868;45.710;9.590;2023-04-25T09:29:42;7.85;;;1.83;;
72949;SDS011;64868;45.710;9.590;2023-04-25T09:34:53;5.32;;;2.28;;
72949;SDS011;64868;45.710;9.590;2023-04-25T09:37:26;6.80;;;2.10;;
72949;SDS011;64868;45.710;9.590;2023-04-25T09:39:55;6.05;;;2.20;;
72949;SDS011;64868;45.710;9.590;2023-04-25T09:42:26;9.43;;;2.15;;
72949;SDS011;64868;45.710;9.590;2023-04-25T09:44:59;5.65;;;2.00;;
72949;SDS011;64868;45.710;9.590;2023-04-25T09:47:31;5.25;;;2.00;;
72949;SDS011;64868;45.710;9.590;2023-04-25T09:50:13;6.55;;;2.38;;
72949;SDS011;64868;45.710;9.590;2023-04-25T09:52:43;7.78;;;2.53;;
72949;SDS011;64868;45.710;9.590;2023-04-25T09:55:29;6.47;;;2.20;;
72949;SDS011;64868;45.710;9.590;2023-04-25T09:58:02;6.90;;;2.13;;
72949;SDS011;64868;45.710;9.590;2023-04-25T10:00:34;6.65;;;2.08;;
72949;SDS011;64868;45.710;9.590;2023-04-25T10:03:04;5.72;;;2.28;;
72949;SDS011;64868;45.710;9.590;2023-04-25T10:05:38;6.60;;;1.92;;
72949;SDS011;64868;45.710;9.590;2023-04-25T10:08:10;5.13;;;2.13;;
72949;SDS011;64868;45.710;9.590;2023-04-25T10:10:44;5.63;;;2.60;;
72949;SDS011;64868;45.710;9.590;2023-04-25T10:13:18;7.43;;;2.75;;
72949;SDS011;64868;45.710;9.590;2023-04-25T10:15:51;8.80;;;4.03;;
72949;SDS011;64868;45.710;9.590;2023-04-25T10:18:22;7.60;;;3.20;;
72949;SDS011;64868;45.710;9.590;2023-04-25T10:20:57;8.68;;;2.60;;
72949;SDS011;64868;45.710;9.590;2023-04-25T10:23:31;7.00;;;3.25;;
72949;SDS011;64868;45.710;9.590;2023-04-25T10:26:01;6.10;;;2.20;;
72949;SDS011;64868;45.710;9.590;2023-04-25T10:28:27;7.07;;;2.42;;
72949;SDS011;64868;45.710;9.590;2023-04-25T10:31:01;5.10;;;1.83;;
72949;SDS011;64868;45.710;9.590;2023-04-25T10:33:36;5.47;;;2.10;;
72949;SDS011;64868;45.710;9.590;2023-04-25T10:36:15;5.28;;;2.10;;
72949;SDS011;64868;45.710;9.590;2023-04-25T10:38:50;4.90;;;2.15;;
72949;SDS011;64868;45.710;9.590;2023-04-25T10:41:21;6.88;;;2.58;;
72949;SDS011;64868;45.710;9.590;2023-04-25T10:43:51;5.28;;;1.83;;
72949;SDS011;64868;45.710;9.590;2023-04-25T10:46:28;6.72;;;2.08;;
72949;SDS011;64868;45.710;9.590;2023-04-25T10:49:03;8.38;;;1.92;;
72949;SDS011;64868;45.710;9.590;2023-04-25T10:51:35;8.32;;;2.10;;
72949;SDS011;64868;45.710;9.590;2023-04-25T10:54:08;6.90;;;1.70;;
72949;SDS011;64868;45.710;9.590;2023-04-25T10:56:37;6.55;;;2.08;;
72949;SDS011;64868;45.710;9.590;2023-04-25T11:01:43;6.03;;;2.13;;
72949;SDS011;64868;45.710;9.590;2023-04-25T11:04:29;6.65;;;2.00;;
72949;SDS011;64868;45.710;9.590;2023-04-25T11:09:40;5.95;;;2.00;;
72949;SDS011;64868;45.710;9.590;2023-04-25T11:12:10;6.45;;;1.90;;
72949;SDS011;64868;45.710;9.590;2023-04-25T11:14:40;5.55;;;1.92;;
72949;SDS011;64868;45.710;9.590;2023-04-25T11:17:10;6.07;;;2.13;;
72949;SDS011;64868;45.710;9.590;2023-04-25T11:19:40;8.18;;;2.20;;
72949;SDS011;64868;45.710;9.590;2023-04-25T11:22:10;5.43;;;2.15;;
72949;SDS011;64868;45.710;9.590;2023-04-25T11:24:41;8.00;;;2.42;;
72949;SDS011;64868;45.710;9.590;2023-04-25T11:27:12;6.65;;;2.47;;
72949;SDS011;64868;45.710;9.590;2023-04-25T11:29:42;7.07;;;2.03;;
72949;SDS011;64868;45.710;9.590;2023-04-25T11:32:10;6.50;;;2.78;;
72949;SDS011;64868;45.710;9.590;2023-04-25T11:34:35;11.07;;;4.32;;
72949;SDS011;64868;45.710;9.590;2023-04-25T11:37:06;7.18;;;2.35;;
72949;SDS011;64868;45.710;9.590;2023-04-25T11:39:36;7.90;;;2.30;;
72949;SDS011;64868;45.710;9.590;2023-04-25T11:42:12;10.75;;;3.10;;
72949;SDS011;64868;45.710;9.590;2023-04-25T11:44:45;12.13;;;4.15;;
72949;SDS011;64868;45.710;9.590;2023-04-25T11:47:15;7.25;;;3.00;;
72949;SDS011;64868;45.710;9.590;2023-04-25T11:49:45;6.45;;;2.38;;
72949;SDS011;64868;45.710;9.590;2023-04-25T11:52:13;14.57;;;3.50;;
72949;SDS011;64868;45.710;9.590;2023-04-25T11:54:43;13.30;;;3.83;;
72949;SDS011;64868;45.710;9.590;2023-04-25T11:57:14;10.63;;;3.55;;
72949;SDS011;64868;45.710;9.590;2023-04-25T11:59:48;11.23;;;3.80;;
72949;SDS011;64868;45.710;9.590;2023-04-25T12:02:28;12.35;;;3.83;;
72949;SDS011;64868;45.710;9.590;2023-04-25T12:05:03;9.23;;;3.72;;
72949;SDS011;64868;45.710;9.590;2023-04-25T12:07:38;11.43;;;3.75;;
72949;SDS011;64868;45.710;9.590;2023-04-25T12:10:10;10.15;;;5.10;;
72949;SDS011;64868;45.710;9.590;2023-04-25T12:12:44;11.52;;;4.40;;
72949;SDS011;64868;45.710;9.590;2023-04-25T12:15:17;11.40;;;4.25;;
72949;SDS011;64868;45.710;9.590;2023-04-25T12:17:50;8.98;;;3.70;;
72949;SDS011;64868;45.710;9.590;2023-04-25T12:20:23;9.63;;;4.82;;
72949;SDS011;64868;45.710;9.590;2023-04-25T12:22:56;9.07;;;4.53;;
72949;SDS011;64868;45.710;9.590;2023-04-25T12:25:43;10.77;;;4.65;;
72949;SDS011;64868;45.710;9.590;2023-04-25T12:28:19;9.32;;;4.35;;
72949;SDS011;64868;45.710;9.590;2023-04-25T12:31:02;7.80;;;3.58;;
72949;SDS011;64868;45.710;9.590;2023-04-25T12:33:36;9.38;;;3.17;;
72949;SDS011;64868;45.710;9.590;2023-04-25T12:38:39;8.95;;;3.60;;
72949;SDS011;64868;45.710;9.590;2023-04-25T12:41:08;7.78;;;3.42;;
72949;SDS011;64868;45.710;9.590;2023-04-25T12:43:38;11.40;;;3.88;;
72949;SDS011;64868;45.710;9.590;2023-04-25T12:46:09;8.73;;;3.25;;
72949;SDS011;64868;45.710;9.590;2023-04-25T12:48:39;8.55;;;3.10;;
72949;SDS011;64868;45.710;9.590;2023-04-25T12:51:09;12.32;;;2.72;;
72949;SDS011;64868;45.710;9.590;2023-04-25T12:53:37;9.60;;;2.67;;
72949;SDS011;64868;45.710;9.590;2023-04-25T12:56:08;6.57;;;2.63;;
72949;SDS011;64868;45.710;9.590;2023-04-25T12:58:36;5.65;;;2.10;;
72949;SDS011;64868;45.710;9.590;2023-04-25T13:01:06;6.03;;;2.30;;
72949;SDS011;64868;45.710;9.590;2023-04-25T13:03:37;7.70;;;2.70;;
72949;SDS011;64868;45.710;9.590;2023-04-25T13:06:07;7.55;;;2.90;;
72949;SDS011;64868;45.710;9.590;2023-04-25T13:08:37;6.28;;;2.58;;
72949;SDS011;64868;45.710;9.590;2023-04-25T13:11:07;6.57;;;2.25;;
72949;SDS011;64868;45.710;9.590;2023-04-25T13:13:37;7.07;;;2.42;;
72949;SDS011;64868;45.710;9.590;2023-04-25T13:16:08;5.68;;;2.10;;
72949;SDS011;64868;45.710;9.590;2023-04-25T13:18:40;6.10;;;1.90;;
72949;SDS011;64868;45.710;9.590;2023-04-25T13:21:13;5.63;;;1.70;;
72949;SDS011;64868;45.710;9.590;2023-04-25T13:23:41;8.70;;;2.17;;
72949;SDS011;64868;45.710;9.590;2023-04-25T13:26:11;7.97;;;2.70;;
72949;SDS011;64868;45.710;9.590;2023-04-25T13:28:38;5.72;;;2.42;;
72949;SDS011;64868;45.710;9.590;2023-04-25T13:31:05;6.78;;;2.83;;
72949;SDS011;64868;45.710;9.590;2023-04-25T13:33:35;10.35;;;3.17;;
72949;SDS011;64868;45.710;9.590;2023-04-25T13:36:05;6.13;;;2.72;;
72949;SDS011;64868;45.710;9.590;2023-04-25T13:38:36;7.63;;;2.80;;
72949;SDS011;64868;45.710;9.590;2023-04-25T13:41:05;9.13;;;2.60;;
72949;SDS011;64868;45.710;9.590;2023-04-25T13:43:36;6.88;;;2.50;;
72949;SDS011;64868;45.710;9.590;2023-04-25T13:46:03;6.35;;;2.40;;
72949;SDS011;64868;45.710;9.590;2023-04-25T13:48:33;7.22;;;2.80;;
72949;SDS011;64868;45.710;9.590;2023-04-25T13:51:03;7.63;;;3.05;;
72949;SDS011;64868;45.710;9.590;2023-04-25T13:53:31;7.05;;;2.85;;
72949;SDS011;64868;45.710;9.590;2023-04-25T13:55:59;7.93;;;3.15;;
72949;SDS011;64868;45.710;9.590;2023-04-25T13:58:27;7.15;;;2.60;;
72949;SDS011;64868;45.710;9.590;2023-04-25T14:00:59;8.60;;;2.55;;
72949;SDS011;64868;45.710;9.590;2023-04-25T14:03:30;7.30;;;2.65;;
72949;SDS011;64868;45.710;9.590;2023-04-25T14:06:00;9.32;;;2.83;;
72949;SDS011;64868;45.710;9.590;2023-04-25T14:08:33;6.28;;;2.55;;
72949;SDS011;64868;45.710;9.590;2023-04-25T14:11:06;7.30;;;2.55;;
72949;SDS011;64868;45.710;9.590;2023-04-25T14:13:38;6.47;;;2.72;;
72949;SDS011;64868;45.710;9.590;2023-04-25T14:16:06;6.22;;;2.40;;
72949;SDS011;64868;45.710;9.590;2023-04-25T14:18:34;6.45;;;2.30;;
72949;SDS011;64868;45.710;9.590;2023-04-25T14:21:04;6.65;;;2.58;;
72949;SDS011;64868;45.710;9.590;2023-04-25T14:23:37;5.78;;;2.00;;
72949;SDS011;64868;45.710;9.590;2023-04-25T14:26:09;8.32;;;2.10;;
72949;SDS011;64868;45.710;9.590;2023-04-25T14:28:40;5.70;;;1.67;;
72949;SDS011;64868;45.710;9.590;2023-04-25T14:31:26;7.10;;;1.98;;
72949;SDS011;64868;45.710;9.590;2023-04-25T14:33:54;8.65;;;2.40;;
72949;SDS011;64868;45.710;9.590;2023-04-25T14:36:29;6.40;;;2.00;;
72949;SDS011;64868;45.710;9.590;2023-04-25T14:39:05;5.88;;;1.80;;
72949;SDS011;64868;45.710;9.590;2023-04-25T14:41:34;5.45;;;1.80;;
72949;SDS011;64868;45.710;9.590;2023-04-25T14:44:04;5.65;;;1.55;;
72949;SDS011;64868;45.710;9.590;2023-04-25T14:46:32;4.72;;;1.33;;
72949;SDS011;64868;45.710;9.590;2023-04-25T14:49:02;5.45;;;1.58;;
72949;SDS011;64868;45.710;9.590;2023-04-25T14:51:32;6.10;;;1.80;;
72949;SDS011;64868;45.710;9.590;2023-04-25T14:54:05;5.15;;;1.33;;
72949;SDS011;64868;45.710;9.590;2023-04-25T14:56:38;6.28;;;1.33;;
72949;SDS011;64868;45.710;9.590;2023-04-25T14:59:09;7.13;;;1.50;;
72949;SDS011;64868;45.710;9.590;2023-04-25T15:01:39;4.03;;;1.10;;
72949;SDS011;64868;45.710;9.590;2023-04-25T15:04:12;4.05;;;0.93;;
72949;SDS011;64868;45.710;9.590;2023-04-25T15:06:42;4.07;;;1.00;;
72949;SDS011;64868;45.710;9.590;2023-04-25T15:09:12;4.43;;;1.05;;
72949;SDS011;64868;45.710;9.590;2023-04-25T15:11:45;4.03;;;1.00;;
72949;SDS011;64868;45.710;9.590;2023-04-25T15:14:19;3.70;;;0.90;;
72949;SDS011;64868;45.710;9.590;2023-04-25T15:17:11;4.25;;;0.93;;
72949;SDS011;64868;45.710;9.590;2023-04-25T15:19:41;4.40;;;1.00;;
72949;SDS011;64868;45.710;9.590;2023-04-25T15:22:12;7.05;;;1.25;;
72949;SDS011;64868;45.710;9.590;2023-04-25T15:24:44;4.38;;;1.33;;